createdAt,value
2022-12-18T00:01:07.053Z,31.40
2022-12-18T00:03:37.670Z,33.33
2022-12-18T00:06:04.773Z,34.75
2022-12-18T00:08:31.518Z,37.40
2022-12-18T00:11:07.016Z,34.03
2022-12-18T00:13:34.310Z,30.65
2022-12-18T00:16:10.612Z,42.88
2022-12-18T00:18:37.602Z,39.72
2022-12-18T00:21:07.289Z,34.10
2022-12-18T00:23:36.091Z,39.70
2022-12-18T00:26:05.956Z,34.60
2022-12-18T00:28:33.393Z,38.63
2022-12-18T00:31:08.399Z,41.67
2022-12-18T00:33:35.775Z,38.13
2022-12-18T00:36:04.374Z,37.85
2022-12-18T00:38:30.998Z,33.72
2022-12-18T00:40:57.721Z,39.10
2022-12-18T00:43:24.337Z,38.72
2022-12-18T00:45:51.602Z,34.80
2022-12-18T00:48:18.247Z,38.30
2022-12-18T00:50:45.154Z,36.20
2022-12-18T00:53:12.819Z,35.85
2022-12-18T00:55:43.639Z,39.72
2022-12-18T00:58:12.049Z,30.20
2022-12-18T01:00:39.127Z,36.83
2022-12-18T01:03:06.249Z,39.60
2022-12-18T01:05:33.761Z,34.30
2022-12-18T01:08:01.042Z,43.38
2022-12-18T01:10:28.017Z,42.95
2022-12-18T01:12:54.646Z,46.47
2022-12-18T01:15:21.423Z,44.15
2022-12-18T01:17:48.037Z,40.67
2022-12-18T01:20:15.069Z,41.85
2022-12-18T01:22:41.640Z,40.17
2022-12-18T01:25:08.740Z,39.00
2022-12-18T01:27:35.496Z,40.55
2022-12-18T01:30:02.251Z,34.15
2022-12-18T01:32:31.813Z,38.10
2022-12-18T01:34:58.581Z,45.35
2022-12-18T01:37:25.324Z,34.88
2022-12-18T01:39:55.191Z,39.53
2022-12-18T01:42:22.390Z,37.58
2022-12-18T01:45:03.928Z,35.88
2022-12-18T01:47:47.511Z,34.47
2022-12-18T01:50:18.041Z,35.30
2022-12-18T01:52:48.746Z,36.65
2022-12-18T01:55:19.503Z,33.63
2022-12-18T01:57:47.497Z,39.28
2022-12-18T02:00:17.629Z,36.83
2022-12-18T02:02:45.958Z,44.88
2022-12-18T02:05:24.402Z,45.28
2022-12-18T02:08:00.636Z,37.42
2022-12-18T02:10:35.021Z,41.20
2022-12-18T02:13:15.959Z,40.00
2022-12-18T02:15:52.064Z,41.03
2022-12-18T02:18:39.431Z,34.90
2022-12-18T02:21:35.286Z,31.60
2022-12-18T02:24:18.029Z,31.83
2022-12-18T02:26:57.287Z,35.22
2022-12-18T02:29:39.994Z,35.50
2022-12-18T02:32:12.276Z,39.90
2022-12-18T02:34:40.854Z,45.70
2022-12-18T02:37:12.518Z,35.28
2022-12-18T02:39:42.655Z,40.88
2022-12-18T02:42:09.902Z,41.83
2022-12-18T02:44:47.601Z,38.45
2022-12-18T02:47:17.729Z,43.58
2022-12-18T02:50:10.801Z,41.17
2022-12-18T02:52:59.989Z,50.40
2022-12-18T02:55:47.975Z,40.80
2022-12-18T02:58:29.400Z,44.95
2022-12-18T03:01:17.073Z,35.90
2022-12-18T03:03:53.712Z,34.95
2022-12-18T03:06:34.067Z,36.03
2022-12-18T03:09:06.959Z,36.13
2022-12-18T03:11:56.671Z,35.08
2022-12-18T03:16:54.052Z,41.22
2022-12-18T03:21:56.843Z,37.95
2022-12-18T03:24:25.323Z,36.50
2022-12-18T03:26:54.463Z,40.60
2022-12-18T03:29:35.614Z,44.05
2022-12-18T03:32:15.268Z,36.97
2022-12-18T03:37:12.787Z,39.88
2022-12-18T03:39:47.830Z,41.58
2022-12-18T03:42:23.533Z,46.13
2022-12-18T03:45:10.616Z,26.55
2022-12-18T03:47:47.590Z,29.95
2022-12-18T03:50:27.398Z,42.50
2022-12-18T03:53:28.048Z,50.53
2022-12-18T03:55:56.336Z,32.60
2022-12-18T03:58:29.115Z,31.75
2022-12-18T04:01:00.592Z,36.95
2022-12-18T04:03:29.153Z,39.42
2022-12-18T04:05:57.407Z,32.67
2022-12-18T04:08:25.570Z,36.08
2022-12-18T04:10:52.366Z,41.70
2022-12-18T04:13:38.200Z,40.70
2022-12-18T04:16:05.693Z,37.63
2022-12-18T04:18:32.452Z,31.92
2022-12-18T04:20:59.082Z,34.65
2022-12-18T04:23:25.679Z,31.15
2022-12-18T04:25:52.278Z,36.45
2022-12-18T04:28:18.986Z,32.65
2022-12-18T04:30:46.125Z,44.80
2022-12-18T04:33:14.222Z,40.90
2022-12-18T04:35:42.279Z,36.92
2022-12-18T04:38:10.912Z,41.80
2022-12-18T04:40:38.798Z,46.47
2022-12-18T04:43:05.769Z,41.90
2022-12-18T04:45:33.437Z,43.03
2022-12-18T04:48:01.055Z,37.88
2022-12-18T04:50:27.925Z,43.95
2022-12-18T04:52:55.093Z,42.80
2022-12-18T04:55:25.674Z,43.75
2022-12-18T04:57:52.341Z,39.33
2022-12-18T05:00:19.437Z,43.42
2022-12-18T05:02:46.285Z,41.85
2022-12-18T05:05:13.095Z,43.78
2022-12-18T05:07:39.886Z,37.80
2022-12-18T05:10:06.967Z,38.25
2022-12-18T05:12:33.657Z,47.58
2022-12-18T05:15:00.323Z,38.25
2022-12-18T05:17:27.074Z,40.15
2022-12-18T05:19:53.700Z,38.40
2022-12-18T05:22:24.049Z,33.97
2022-12-18T05:24:50.743Z,35.63
2022-12-18T05:27:17.381Z,17.23
2022-12-18T05:29:43.954Z,34.67
2022-12-18T05:32:10.669Z,38.60
2022-12-18T05:34:37.288Z,31.90
2022-12-18T05:37:03.941Z,37.15
2022-12-18T05:39:30.597Z,40.55
2022-12-18T05:41:57.225Z,42.47
2022-12-18T05:44:23.933Z,33.20
2022-12-18T05:46:50.642Z,46.95
2022-12-18T05:49:17.361Z,41.55
2022-12-18T05:51:44.036Z,33.50
2022-12-18T05:54:10.662Z,36.42
2022-12-18T05:56:37.300Z,48.35
2022-12-18T05:59:03.958Z,40.85
2022-12-18T06:01:30.624Z,39.35
2022-12-18T06:03:57.786Z,36.38
2022-12-18T06:06:27.241Z,46.22
2022-12-18T06:08:54.919Z,41.33
2022-12-18T06:11:25.148Z,37.58
2022-12-18T06:13:57.805Z,42.50
2022-12-18T06:16:25.673Z,43.47
2022-12-18T06:18:52.268Z,36.35
2022-12-18T06:21:19.231Z,42.30
2022-12-18T06:23:45.904Z,34.72
2022-12-18T06:26:13.823Z,26.73
2022-12-18T06:28:40.690Z,35.38
2022-12-18T06:31:08.461Z,30.85
2022-12-18T06:33:35.707Z,33.65
2022-12-18T06:36:05.293Z,36.53
2022-12-18T06:38:33.816Z,34.65
2022-12-18T06:41:00.585Z,26.58
2022-12-18T06:43:27.315Z,32.83
2022-12-18T06:46:14.612Z,41.80
2022-12-18T06:48:41.582Z,28.90
2022-12-18T06:51:08.388Z,34.72
2022-12-18T06:53:35.135Z,31.88
2022-12-18T06:56:09.158Z,42.30
2022-12-18T06:58:36.824Z,19.38
2022-12-18T07:01:06.382Z,37.05
2022-12-18T07:03:33.311Z,29.85
2022-12-18T07:06:00.174Z,35.58
2022-12-18T07:08:27.003Z,36.00
2022-12-18T07:10:56.560Z,37.33
2022-12-18T07:13:23.522Z,32.35
2022-12-18T07:15:59.594Z,30.13
2022-12-18T07:18:26.264Z,35.33
2022-12-18T07:20:52.888Z,40.53
2022-12-18T07:23:19.584Z,36.33
2022-12-18T07:25:47.608Z,32.47
2022-12-18T07:28:17.530Z,32.88
2022-12-18T07:30:54.071Z,31.45
2022-12-18T07:33:22.324Z,37.45
2022-12-18T07:35:48.886Z,32.35
2022-12-18T07:38:15.536Z,30.60
2022-12-18T07:40:42.144Z,30.77
2022-12-18T07:43:08.834Z,30.88
2022-12-18T07:45:35.492Z,37.60
2022-12-18T07:48:02.161Z,24.52
2022-12-18T07:50:28.865Z,31.80
2022-12-18T07:52:55.482Z,23.00
2022-12-18T07:55:22.164Z,27.80
2022-12-18T07:57:51.443Z,28.38
2022-12-18T08:00:19.389Z,31.60
2022-12-18T08:02:46.210Z,30.15
2022-12-18T08:05:12.906Z,33.60
2022-12-18T08:07:39.500Z,29.48
2022-12-18T08:10:07.069Z,30.38
2022-12-18T08:12:33.710Z,45.63
2022-12-18T08:15:00.363Z,29.27
2022-12-18T08:17:26.989Z,29.63
2022-12-18T08:19:53.702Z,25.98
2022-12-18T08:22:20.338Z,31.58
2022-12-18T08:24:46.993Z,32.58
2022-12-18T08:27:29.079Z,32.80
2022-12-18T08:29:56.597Z,27.05
2022-12-18T08:32:23.604Z,30.38
2022-12-18T08:34:52.490Z,30.02
2022-12-18T08:37:19.242Z,28.53
2022-12-18T08:39:45.834Z,29.13
2022-12-18T08:42:35.124Z,26.92
2022-12-18T08:45:02.164Z,32.78
2022-12-18T08:47:28.899Z,27.30
2022-12-18T08:49:55.601Z,27.30
2022-12-18T08:52:22.201Z,36.25
2022-12-18T08:54:48.892Z,23.05
2022-12-18T08:57:15.796Z,30.65
2022-12-18T08:59:42.533Z,27.30
2022-12-18T09:02:12.872Z,14.07
2022-12-18T09:04:40.923Z,24.40
2022-12-18T09:07:07.754Z,25.00
2022-12-18T09:09:34.566Z,27.02
2022-12-18T09:12:01.316Z,27.17
2022-12-18T09:14:28.221Z,25.00
2022-12-18T09:16:57.417Z,24.30
2022-12-18T09:19:24.495Z,10.00
2022-12-18T09:21:51.319Z,23.70
2022-12-18T09:24:24.111Z,23.27
2022-12-18T09:26:57.559Z,28.13
2022-12-18T09:29:24.911Z,19.08
2022-12-18T09:31:51.765Z,20.05
2022-12-18T09:34:18.969Z,18.73
2022-12-18T09:36:45.720Z,23.02
2022-12-18T09:39:14.120Z,30.58
2022-12-18T09:41:43.530Z,25.60
2022-12-18T09:44:30.823Z,22.60
2022-12-18T09:47:15.775Z,22.98
2022-12-18T09:49:49.845Z,23.25
2022-12-18T09:52:38.388Z,21.40
2022-12-18T09:55:36.796Z,28.33
2022-12-18T09:58:31.647Z,25.38
2022-12-18T10:00:58.478Z,23.02
2022-12-18T10:03:25.152Z,25.80
2022-12-18T10:06:24.624Z,24.65
2022-12-18T10:08:57.283Z,19.95
2022-12-18T10:11:43.601Z,25.45
2022-12-18T10:14:35.015Z,23.40
2022-12-18T10:17:16.352Z,18.98
2022-12-18T10:19:57.252Z,25.63
2022-12-18T10:22:29.493Z,26.50
2022-12-18T10:25:05.018Z,28.15
2022-12-18T10:27:31.885Z,21.42
2022-12-18T10:30:08.586Z,22.88
2022-12-18T10:32:36.282Z,23.02
2022-12-18T10:35:02.964Z,20.60
2022-12-18T10:37:31.132Z,23.92
2022-12-18T10:40:22.264Z,24.27
2022-12-18T10:43:12.861Z,21.00
2022-12-18T10:45:40.250Z,24.02
2022-12-18T10:48:19.565Z,26.38
2022-12-18T10:53:38.449Z,23.85
2022-12-18T10:56:07.264Z,25.13
2022-12-18T10:58:36.531Z,24.30
2022-12-18T11:01:05.014Z,23.75
2022-12-18T11:03:38.704Z,25.48
2022-12-18T11:06:07.794Z,29.40
2022-12-18T11:08:34.752Z,25.80
2022-12-18T11:11:01.724Z,24.50
2022-12-18T11:13:30.945Z,20.63
2022-12-18T11:15:58.039Z,22.73
2022-12-18T11:18:30.937Z,27.23
2022-12-18T11:21:10.349Z,24.40
2022-12-18T11:23:39.001Z,25.98
2022-12-18T11:26:07.043Z,27.00
2022-12-18T11:28:44.755Z,20.02
2022-12-18T11:31:29.231Z,19.25
2022-12-18T11:34:28.801Z,28.70
2022-12-18T11:36:56.431Z,28.08
2022-12-18T11:39:32.089Z,31.73
2022-12-18T11:42:23.810Z,26.58
2022-12-18T11:45:00.132Z,25.85
2022-12-18T11:47:41.476Z,21.08
2022-12-18T11:50:37.663Z,31.38
2022-12-18T11:53:06.503Z,22.95
2022-12-18T11:55:57.158Z,21.27
2022-12-18T11:58:51.026Z,29.20
2022-12-18T12:01:47.743Z,28.52
2022-12-18T12:04:44.467Z,23.85
2022-12-18T12:07:29.929Z,27.95
2022-12-18T12:10:26.677Z,25.45
2022-12-18T12:13:11.687Z,27.27
2022-12-18T12:16:19.715Z,28.80
2022-12-18T12:19:24.763Z,24.60
2022-12-18T12:22:06.856Z,30.30
2022-12-18T12:24:52.641Z,28.08
2022-12-18T12:27:52.657Z,36.88
2022-12-18T12:30:45.251Z,28.50
2022-12-18T12:33:29.761Z,27.52
2022-12-18T12:36:04.121Z,30.70
2022-12-18T12:38:48.300Z,30.88
2022-12-18T12:41:40.750Z,40.00
2022-12-18T12:44:14.037Z,39.38
2022-12-18T12:46:43.384Z,35.55
2022-12-18T12:49:19.622Z,31.17
2022-12-18T12:51:54.163Z,28.75
2022-12-18T12:54:25.566Z,30.40
2022-12-18T12:57:13.671Z,31.50
2022-12-18T12:59:41.401Z,32.92
2022-12-18T13:02:31.516Z,31.55
2022-12-18T13:05:32.314Z,31.42
2022-12-18T13:08:11.187Z,31.92
2022-12-18T13:10:40.998Z,26.05
2022-12-18T13:13:23.708Z,27.45
2022-12-18T13:16:08.108Z,25.65
2022-12-18T13:18:36.051Z,31.15
2022-12-18T13:21:13.494Z,21.20
2022-12-18T13:23:41.409Z,29.08
2022-12-18T13:26:11.609Z,30.90
2022-12-18T13:28:47.649Z,30.02
2022-12-18T13:31:42.424Z,25.23
2022-12-18T13:34:33.518Z,23.08
2022-12-18T13:37:32.365Z,33.50
2022-12-18T13:39:59.208Z,26.38
2022-12-18T13:42:56.747Z,33.03
2022-12-18T13:45:42.971Z,32.42
2022-12-18T13:48:19.818Z,35.72
2022-12-18T13:50:52.944Z,36.55
2022-12-18T13:53:25.580Z,31.23
2022-12-18T13:55:52.844Z,35.33
2022-12-18T13:58:19.991Z,32.63
2022-12-18T14:00:46.783Z,36.38
2022-12-18T14:03:29.767Z,35.10
2022-12-18T14:06:08.422Z,35.90
2022-12-18T14:08:43.808Z,29.77
2022-12-18T14:11:23.377Z,31.95
2022-12-18T14:13:50.364Z,23.77
2022-12-18T14:16:18.671Z,27.38
2022-12-18T14:19:10.146Z,34.30
2022-12-18T14:21:47.870Z,31.55
2022-12-18T14:24:21.051Z,28.15
2022-12-18T14:26:51.514Z,40.63
2022-12-18T14:29:30.722Z,29.00
2022-12-18T14:32:17.829Z,29.27
2022-12-18T14:34:54.512Z,44.30
2022-12-18T14:37:23.707Z,23.00
2022-12-18T14:40:13.695Z,34.15
2022-12-18T14:42:40.404Z,25.27
2022-12-18T14:45:41.340Z,30.25
2022-12-18T14:48:23.067Z,31.77
2022-12-18T14:51:18.344Z,37.03
2022-12-18T14:53:54.102Z,35.78
2022-12-18T14:56:27.784Z,32.30
2022-12-18T14:58:56.337Z,32.38
2022-12-18T15:01:29.229Z,25.17
2022-12-18T15:03:57.688Z,26.17
2022-12-18T15:06:34.115Z,37.50
2022-12-18T15:09:05.106Z,31.02
2022-12-18T15:11:42.521Z,31.83
2022-12-18T15:14:31.426Z,28.08
2022-12-18T15:17:00.235Z,28.57
2022-12-18T15:19:41.867Z,36.40
2022-12-18T15:22:23.706Z,33.10
2022-12-18T15:24:50.613Z,35.72
2022-12-18T15:27:36.341Z,19.73
2022-12-18T15:30:08.939Z,30.90
2022-12-18T15:32:40.970Z,39.25
2022-12-18T15:35:10.575Z,31.05
2022-12-18T15:37:37.761Z,34.25
2022-12-18T15:40:05.151Z,30.98
2022-12-18T15:42:50.414Z,27.70
2022-12-18T15:45:17.165Z,36.55
2022-12-18T15:47:47.898Z,32.17
2022-12-18T15:50:14.520Z,33.77
2022-12-18T15:52:45.492Z,35.47
2022-12-18T15:55:34.565Z,32.95
2022-12-18T15:58:02.752Z,42.40
2022-12-18T16:00:29.320Z,28.75
2022-12-18T16:02:56.185Z,38.30
2022-12-18T16:05:24.116Z,33.30
2022-12-18T16:07:50.739Z,27.08
2022-12-18T16:10:17.388Z,34.42
2022-12-18T16:12:44.369Z,32.67
2022-12-18T16:15:15.858Z,33.75
2022-12-18T16:17:45.063Z,44.83
2022-12-18T16:20:16.088Z,27.38
2022-12-18T16:22:46.713Z,28.65
2022-12-18T16:25:20.462Z,34.55
2022-12-18T16:27:47.729Z,25.92
2022-12-18T16:30:17.888Z,29.88
2022-12-18T16:32:44.951Z,37.20
2022-12-18T16:35:14.007Z,35.17
2022-12-18T16:37:41.600Z,41.85
2022-12-18T16:40:11.413Z,35.13
2022-12-18T16:45:10.614Z,50.00
2022-12-18T16:47:37.841Z,44.38
2022-12-18T16:50:05.537Z,39.00
2022-12-18T16:52:32.428Z,31.40
2022-12-18T16:54:59.024Z,35.60
2022-12-18T16:57:25.729Z,30.38
2022-12-18T16:59:52.923Z,41.65
2022-12-18T17:02:23.635Z,45.25
2022-12-18T17:04:53.086Z,43.00
2022-12-18T17:07:19.793Z,30.80
2022-12-18T17:09:46.480Z,41.85
2022-12-18T17:12:13.258Z,42.05
2022-12-18T17:14:40.001Z,37.15
2022-12-18T17:17:20.888Z,50.85
2022-12-18T17:19:48.215Z,35.08
2022-12-18T17:22:14.830Z,36.40
2022-12-18T17:24:42.595Z,39.10
2022-12-18T17:27:09.253Z,37.70
2022-12-18T17:29:36.215Z,38.65
2022-12-18T17:32:02.957Z,49.75
2022-12-18T17:34:29.746Z,44.20
2022-12-18T17:36:57.021Z,37.72
2022-12-18T17:39:23.714Z,48.70
2022-12-18T17:41:50.418Z,42.17
2022-12-18T17:44:18.036Z,44.75
2022-12-18T17:46:44.861Z,34.05
2022-12-18T17:49:12.325Z,46.97
2022-12-18T17:51:39.216Z,48.78
2022-12-18T17:54:06.041Z,50.92
2022-12-18T17:56:32.834Z,53.40
2022-12-18T17:59:00.096Z,41.85
2022-12-18T18:01:27.560Z,56.28
2022-12-18T18:03:57.623Z,50.08
2022-12-18T18:06:24.353Z,51.03
2022-12-18T18:08:51.714Z,41.58
2022-12-18T18:11:38.504Z,45.22
2022-12-18T18:14:11.014Z,41.10
2022-12-18T18:16:46.321Z,34.85
2022-12-18T18:19:21.928Z,48.10
2022-12-18T18:21:51.081Z,32.08
2022-12-18T18:26:47.004Z,41.20
2022-12-18T18:29:17.227Z,45.08
2022-12-18T18:31:44.208Z,44.15
2022-12-18T18:34:18.506Z,34.47
2022-12-18T18:36:46.248Z,36.63
2022-12-18T18:39:13.404Z,48.05
2022-12-18T18:41:40.007Z,45.47
2022-12-18T18:44:06.881Z,32.88
2022-12-18T18:46:33.748Z,42.53
2022-12-18T18:49:00.533Z,39.05
2022-12-18T18:51:31.546Z,45.10
2022-12-18T18:54:01.410Z,46.95
2022-12-18T18:56:56.141Z,46.65
2022-12-18T18:59:15.492Z,41.25
2022-12-18T19:01:42.613Z,41.28
2022-12-18T19:04:09.647Z,44.47
2022-12-18T19:06:36.436Z,50.13
2022-12-18T19:09:04.882Z,45.03
2022-12-18T19:11:50.350Z,33.08
2022-12-18T19:14:17.376Z,41.42
2022-12-18T19:16:45.365Z,44.92
2022-12-18T19:19:13.113Z,49.85
2022-12-18T19:21:39.891Z,40.83
2022-12-18T19:24:06.805Z,48.47
2022-12-18T19:26:33.571Z,52.17
2022-12-18T19:29:08.600Z,37.78
2022-12-18T19:31:37.135Z,36.88
2022-12-18T19:34:08.014Z,37.03
2022-12-18T19:36:37.241Z,44.33
2022-12-18T19:39:10.765Z,44.25
2022-12-18T19:41:37.989Z,52.65
2022-12-18T19:44:08.126Z,38.28
2022-12-18T19:46:35.488Z,45.45
2022-12-18T19:49:02.501Z,45.10
2022-12-18T19:51:30.687Z,37.13
2022-12-18T19:54:01.974Z,43.22
2022-12-18T19:56:34.796Z,31.52
2022-12-18T19:59:02.869Z,48.72
2022-12-18T20:01:30.640Z,52.15
2022-12-18T20:03:58.884Z,51.42
2022-12-18T20:06:36.229Z,54.00
2022-12-18T20:09:06.492Z,43.40
2022-12-18T20:11:40.242Z,40.90
2022-12-18T20:14:09.519Z,47.17
2022-12-18T20:16:36.288Z,41.03
2022-12-18T20:19:04.244Z,42.08
2022-12-18T20:21:31.041Z,44.80
2022-12-18T20:23:59.757Z,49.05
2022-12-18T20:26:26.543Z,53.28
2022-12-18T20:28:54.416Z,45.92
2022-12-18T20:31:21.432Z,24.77
2022-12-18T20:33:48.709Z,51.90
2022-12-18T20:36:21.365Z,47.42
2022-12-18T20:38:54.667Z,40.65
2022-12-18T20:41:24.270Z,39.38
2022-12-18T20:43:50.987Z,43.75
2022-12-18T20:46:18.229Z,41.03
2022-12-18T20:48:45.852Z,48.00
2022-12-18T20:51:15.836Z,45.70
2022-12-18T20:53:43.253Z,39.28
2022-12-18T20:56:17.741Z,44.22
2022-12-18T20:58:49.307Z,49.30
2022-12-18T21:01:19.194Z,35.45
2022-12-18T21:03:47.586Z,42.38
2022-12-18T21:06:15.708Z,47.55
2022-12-18T21:08:43.351Z,46.45
2022-12-18T21:11:44.005Z,42.10
2022-12-18T21:14:25.176Z,46.10
2022-12-18T21:16:52.472Z,49.00
2022-12-18T21:19:25.810Z,42.88
2022-12-18T21:21:53.489Z,39.20
2022-12-18T21:24:20.842Z,49.53
2022-12-18T21:26:49.009Z,34.42
2022-12-18T21:29:21.055Z,48.67
2022-12-18T21:31:48.307Z,42.47
2022-12-18T21:34:17.798Z,47.17
2022-12-18T21:36:44.556Z,34.97
2022-12-18T21:39:13.397Z,46.33
2022-12-18T21:41:58.531Z,32.83
2022-12-18T21:44:25.291Z,46.42
2022-12-18T21:46:56.939Z,42.85
2022-12-18T21:49:27.102Z,46.00
2022-12-18T21:51:56.055Z,48.60
2022-12-18T21:54:23.578Z,49.08
2022-12-18T21:56:51.896Z,33.95
2022-12-18T21:59:33.540Z,40.55
2022-12-18T22:02:04.188Z,39.65
2022-12-18T22:04:31.261Z,47.30
2022-12-18T22:07:01.878Z,47.70
2022-12-18T22:09:28.844Z,53.70
2022-12-18T22:11:55.449Z,41.63
2022-12-18T22:14:23.209Z,53.45
2022-12-18T22:16:50.660Z,55.75
2022-12-18T22:19:19.508Z,32.20
2022-12-18T22:21:48.644Z,49.20
2022-12-18T22:24:21.425Z,48.78
2022-12-18T22:26:49.763Z,55.63
2022-12-18T22:29:37.708Z,46.20
2022-12-18T22:32:05.822Z,52.75
2022-12-18T22:34:36.412Z,44.47
2022-12-18T22:37:03.418Z,42.90
2022-12-18T22:39:30.760Z,48.10
2022-12-18T22:41:58.129Z,51.78
2022-12-18T22:44:25.064Z,51.45
2022-12-18T22:47:06.833Z,48.90
2022-12-18T22:49:35.531Z,45.22
2022-12-18T22:52:03.726Z,41.30
2022-12-18T22:54:30.386Z,40.75
2022-12-18T22:56:57.279Z,48.40
2022-12-18T22:59:24.246Z,32.60
2022-12-18T23:01:54.907Z,43.10
2022-12-18T23:04:35.956Z,49.75
2022-12-18T23:07:04.875Z,47.80
2022-12-18T23:09:31.653Z,42.05
2022-12-18T23:11:58.294Z,45.08
2022-12-18T23:14:25.002Z,37.40
2022-12-18T23:16:52.258Z,42.53
2022-12-18T23:19:20.525Z,45.92
2022-12-18T23:21:47.232Z,33.90
2022-12-18T23:24:13.999Z,37.05
2022-12-18T23:26:40.980Z,42.03
2022-12-18T23:29:07.915Z,40.72
2022-12-18T23:31:37.469Z,43.80
2022-12-18T23:34:06.051Z,44.38
2022-12-18T23:36:45.817Z,46.75
2022-12-18T23:39:15.401Z,39.80
2022-12-18T23:41:55.349Z,46.72
2022-12-18T23:44:22.047Z,39.80
2022-12-18T23:46:48.670Z,38.28
2022-12-18T23:49:15.308Z,49.95
2022-12-18T23:51:41.974Z,50.28
2022-12-18T23:54:10.151Z,54.85
2022-12-18T23:56:36.818Z,30.67
2022-12-18T23:59:03.517Z,37.65
